Time;durP1;ratioP1;P1;durP2;ratioP2;P2;SDS_P1;SDS_P2;PMS_P1;PMS_P2;Temp;Humidity;BMP_temperature;BMP_pressure;BME280_temperature;BME280_humidity;BME280_pressure;Samples;Min_cycle;Max_cycle;Signal;HPM_P1;HPM_P2
2023/12/10 00:01:39;;;;;;;7.93;2.30;;;10.80;99.90;;;;;;957309;147;27335;-85
2023/12/10 00:04:06;;;;;;;9.33;2.63;;;10.80;99.90;;;;;;957316;147;27273;-85
2023/12/10 00:06:33;;;;;;;10.73;2.50;;;10.70;99.90;;;;;;957132;147;27296;-85
2023/12/10 00:08:59;;;;;;;6.53;2.00;;;10.70;99.90;;;;;;957624;147;27383;-83
2023/12/10 00:11:26;;;;;;;7.30;2.27;;;10.70;99.90;;;;;;957776;147;27936;-85
2023/12/10 00:13:52;;;;;;;6.03;2.10;;;10.60;99.90;;;;;;957466;147;27409;-85
2023/12/10 00:16:19;;;;;;;11.17;3.73;;;10.60;99.90;;;;;;917157;153;27399;-85
2023/12/10 00:18:46;;;;;;;7.40;2.43;;;10.50;99.90;;;;;;936350;150;27298;-84
2023/12/10 00:21:15;;;;;;;8.97;2.43;;;10.50;99.90;;;;;;941920;149;27428;-83
2023/12/10 00:23:41;;;;;;;6.57;2.60;;;10.50;99.90;;;;;;962035;146;27440;-85
2023/12/10 00:26:08;;;;;;;5.20;2.07;;;10.50;99.90;;;;;;964156;143;27467;-86
2023/12/10 00:28:35;;;;;;;8.33;2.50;;;10.50;99.90;;;;;;961415;146;27274;-84
2023/12/10 00:31:02;;;;;;;8.30;2.83;;;10.40;99.90;;;;;;962483;146;27321;-85
2023/12/10 00:33:28;;;;;;;9.63;3.13;;;10.40;99.90;;;;;;964158;146;27427;-79
2023/12/10 00:35:54;;;;;;;9.40;3.27;;;10.40;99.90;;;;;;961840;146;28486;-79
2023/12/10 00:38:21;;;;;;;10.97;2.83;;;10.30;99.90;;;;;;948303;147;27253;-79
2023/12/10 00:40:48;;;;;;;11.23;3.03;;;10.30;99.90;;;;;;952411;147;28429;-80
2023/12/10 00:43:16;;;;;;;10.67;2.77;;;10.30;99.90;;;;;;950773;147;27330;-80
2023/12/10 00:45:41;;;;;;;8.70;2.80;;;10.30;99.90;;;;;;950414;146;27366;-79
2023/12/10 00:48:08;;;;;;;11.20;2.90;;;10.30;99.90;;;;;;955781;147;27231;-80
2023/12/10 00:50:34;;;;;;;12.67;3.03;;;10.20;99.90;;;;;;954829;147;27398;-79
2023/12/10 00:53:03;;;;;;;9.00;3.50;;;10.20;99.90;;;;;;954051;147;27304;-80
2023/12/10 00:55:30;;;;;;;12.40;3.00;;;10.20;99.90;;;;;;955460;147;27438;-79
2023/12/10 00:57:57;;;;;;;9.47;3.20;;;10.10;99.90;;;;;;954430;147;27263;-80
2023/12/10 01:00:23;;;;;;;10.03;3.07;;;10.10;99.90;;;;;;954562;147;27766;-80
2023/12/10 01:02:50;;;;;;;13.23;3.13;;;10.10;99.90;;;;;;951946;147;27743;-80
2023/12/10 01:05:16;;;;;;;10.50;3.43;;;10.10;99.90;;;;;;953799;147;27330;-79
2023/12/10 01:07:43;;;;;;;13.33;3.67;;;10.10;99.90;;;;;;952054;147;27332;-79
2023/12/10 01:10:10;;;;;;;10.13;2.87;;;10.20;99.90;;;;;;950086;147;27290;-79
2023/12/10 01:12:37;;;;;;;13.23;3.27;;;10.20;99.90;;;;;;952664;147;27295;-79
2023/12/10 01:15:05;;;;;;;10.10;3.20;;;10.20;99.90;;;;;;952876;147;27766;-80
2023/12/10 01:17:32;;;;;;;9.27;3.10;;;10.10;99.90;;;;;;953216;147;27352;-79
2023/12/10 01:20:03;;;;;;;15.80;3.60;;;10.10;99.90;;;;;;952190;146;27382;-79
2023/12/10 01:22:28;;;;;;;11.77;3.27;;;10.10;99.90;;;;;;951579;147;27444;-80
2023/12/10 01:24:54;;;;;;;12.67;3.07;;;10.20;99.90;;;;;;953224;147;27424;-80
2023/12/10 01:27:21;;;;;;;11.17;3.17;;;10.20;99.90;;;;;;954794;147;27442;-81
2023/12/10 01:29:47;;;;;;;13.70;3.50;;;10.20;99.90;;;;;;953018;147;27235;-79
2023/12/10 01:32:14;;;;;;;12.63;3.33;;;10.20;99.90;;;;;;956425;147;28334;-79
2023/12/10 01:34:44;;;;;;;12.70;3.43;;;10.20;99.90;;;;;;954009;147;27313;-80
2023/12/10 01:37:10;;;;;;;8.00;3.10;;;10.20;99.90;;;;;;913714;154;27384;-79
2023/12/10 01:39:37;;;;;;;15.20;4.17;;;10.20;99.90;;;;;;921164;151;27332;-79
2023/12/10 01:42:03;;;;;;;14.77;4.43;;;10.20;99.90;;;;;;919850;151;27295;-79
2023/12/10 01:44:30;;;;;;;12.37;3.63;;;10.20;99.90;;;;;;934830;149;27466;-81
2023/12/10 01:46:57;;;;;;;8.60;3.10;;;10.30;99.90;;;;;;934620;149;27404;-81
2023/12/10 01:49:25;;;;;;;15.67;3.63;;;10.30;99.90;;;;;;934402;149;27374;-81
2023/12/10 01:51:50;;;;;;;12.00;3.90;;;10.30;99.90;;;;;;934772;148;27268;-82
2023/12/10 01:54:22;;;;;;;14.10;5.13;;;10.40;99.90;;;;;;917187;150;27373;-82
2023/12/10 01:56:52;;;;;;;16.97;3.90;;;10.40;99.90;;;;;;917795;151;27449;-82
2023/12/10 01:59:18;;;;;;;13.63;3.50;;;10.40;99.90;;;;;;953294;147;27426;-81
2023/12/10 02:01:48;;;;;;;13.40;4.50;;;10.40;99.90;;;;;;953240;147;27304;-81
2023/12/10 02:04:11;;;;;;;14.90;4.23;;;10.50;99.90;;;;;;912311;154;27406;-81
2023/12/10 02:06:38;;;;;;;15.17;4.07;;;10.50;99.90;;;;;;934746;150;27343;-82
2023/12/10 02:09:12;;;;;;;13.30;4.07;;;10.50;99.90;;;;;;932328;149;27766;-81
2023/12/10 02:11:37;;;;;;;12.47;3.27;;;10.60;99.90;;;;;;954337;147;27372;-82
2023/12/10 02:14:04;;;;;;;16.80;4.13;;;10.60;99.90;;;;;;955336;147;27412;-82
2023/12/10 02:16:30;;;;;;;14.10;4.37;;;10.60;99.90;;;;;;953658;147;27972;-82
2023/12/10 02:18:57;;;;;;;16.87;3.73;;;10.70;99.90;;;;;;947490;147;27433;-82
2023/12/10 02:21:23;;;;;;;13.63;3.83;;;10.70;99.90;;;;;;951589;146;27444;-82
2023/12/10 02:24:02;;;;;;;17.37;4.43;;;10.70;99.90;;;;;;956197;147;27219;-82
2023/12/10 02:26:28;;;;;;;13.87;4.27;;;10.80;99.90;;;;;;955140;147;27277;-82
2023/12/10 02:28:55;;;;;;;16.57;3.93;;;10.70;99.90;;;;;;954238;147;27434;-82
2023/12/10 02:31:24;;;;;;;14.73;4.40;;;10.80;99.90;;;;;;956004;147;27310;-82
2023/12/10 02:33:48;;;;;;;10.43;3.27;;;10.80;99.90;;;;;;956988;147;27290;-82
2023/12/10 02:36:15;;;;;;;14.73;4.20;;;10.80;99.90;;;;;;956681;147;27398;-82
2023/12/10 02:38:41;;;;;;;16.10;3.77;;;10.80;99.90;;;;;;953130;147;27396;-82
2023/12/10 02:41:08;;;;;;;15.70;3.93;;;10.80;99.90;;;;;;954661;147;27432;-81
2023/12/10 02:43:35;;;;;;;14.50;4.17;;;10.80;99.90;;;;;;955474;147;28389;-82
2023/12/10 02:46:01;;;;;;;16.67;5.00;;;10.90;99.90;;;;;;956107;147;27324;-84
2023/12/10 02:48:28;;;;;;;11.93;3.73;;;10.90;99.90;;;;;;953367;147;27358;-85
2023/12/10 02:50:57;;;;;;;15.50;3.83;;;10.90;99.90;;;;;;955731;146;27328;-82
2023/12/10 02:53:21;;;;;;;15.53;4.50;;;10.90;99.90;;;;;;955495;147;27341;-84
2023/12/10 02:55:48;;;;;;;13.03;3.50;;;10.90;99.90;;;;;;953762;147;27343;-82
2023/12/10 02:58:15;;;;;;;17.47;4.07;;;11.00;99.90;;;;;;906921;154;28026;-82
2023/12/10 03:00:41;;;;;;;12.83;3.97;;;11.00;99.90;;;;;;926863;151;27306;-82
2023/12/10 03:03:07;;;;;;;14.23;4.23;;;11.00;99.90;;;;;;909216;153;27975;-81
2023/12/10 03:05:34;;;;;;;13.47;3.93;;;11.10;99.90;;;;;;919861;152;27780;-82
2023/12/10 03:08:00;;;;;;;10.47;3.07;;;11.10;99.90;;;;;;933536;150;27275;-82
2023/12/10 03:10:27;;;;;;;14.30;4.07;;;11.10;99.90;;;;;;918086;152;27784;-81
2023/12/10 03:12:55;;;;;;;15.20;4.07;;;11.10;99.90;;;;;;935429;149;27331;-81
2023/12/10 03:15:20;;;;;;;14.40;3.97;;;11.10;99.90;;;;;;955749;147;27406;-81
2023/12/10 03:17:47;;;;;;;16.47;4.30;;;11.10;99.90;;;;;;955173;147;27345;-81
2023/12/10 03:20:14;;;;;;;17.20;4.13;;;11.10;99.90;;;;;;954995;146;27285;-82
2023/12/10 03:22:40;;;;;;;12.77;4.03;;;11.00;99.90;;;;;;911672;152;27462;-81
2023/12/10 03:25:07;;;;;;;12.03;3.97;;;11.00;99.90;;;;;;934370;149;27362;-81
2023/12/10 03:27:33;;;;;;;14.70;3.87;;;11.00;99.90;;;;;;933643;149;27368;-81
2023/12/10 03:30:00;;;;;;;14.73;4.20;;;10.90;99.90;;;;;;917585;151;27390;-81
2023/12/10 03:32:26;;;;;;;14.30;3.70;;;10.90;99.90;;;;;;953294;147;27323;-80
2023/12/10 03:34:53;;;;;;;13.27;3.60;;;10.90;99.90;;;;;;953762;147;27334;-81
2023/12/10 03:37:21;;;;;;;8.97;3.20;;;10.90;99.90;;;;;;956243;147;27444;-81
2023/12/10 03:39:46;;;;;;;10.43;3.13;;;10.90;99.90;;;;;;954099;147;27327;-81
2023/12/10 03:42:13;;;;;;;10.57;3.50;;;10.90;99.90;;;;;;952759;147;27237;-81
2023/12/10 03:44:39;;;;;;;14.00;4.60;;;10.90;99.90;;;;;;954406;147;27377;-81
2023/12/10 03:47:06;;;;;;;10.30;3.57;;;10.90;99.90;;;;;;912966;154;27445;-81
2023/12/10 03:49:33;;;;;;;11.47;2.93;;;10.90;99.90;;;;;;914378;151;27448;-82
2023/12/10 03:51:59;;;;;;;12.13;4.00;;;10.90;99.90;;;;;;952312;146;27434;-81
2023/12/10 03:54:26;;;;;;;12.93;3.90;;;10.80;99.90;;;;;;957670;147;27316;-81
2023/12/10 03:56:52;;;;;;;13.40;3.57;;;10.80;99.90;;;;;;953785;147;27286;-84
2023/12/10 03:59:19;;;;;;;10.10;3.40;;;10.70;99.90;;;;;;953381;147;27271;-84
2023/12/10 04:01:45;;;;;;;7.90;3.37;;;10.70;99.90;;;;;;955378;147;27430;-85
2023/12/10 04:04:12;;;;;;;8.37;3.37;;;10.60;99.90;;;;;;954840;147;28001;-85
2023/12/10 04:06:42;;;;;;;9.63;2.83;;;10.60;99.90;;;;;;953290;147;27726;-82
2023/12/10 04:09:08;;;;;;;11.10;3.27;;;10.60;99.90;;;;;;953485;147;27317;-81
2023/12/10 04:11:34;;;;;;;10.77;3.17;;;10.50;99.90;;;;;;913009;154;27383;-81
2023/12/10 04:14:01;;;;;;;9.17;3.23;;;10.50;99.90;;;;;;955684;147;27289;-81
2023/12/10 04:16:28;;;;;;;11.53;2.23;;;10.50;99.90;;;;;;953163;147;27307;-81
2023/12/10 04:18:54;;;;;;;7.93;2.70;;;10.50;99.90;;;;;;913343;154;27404;-81
2023/12/10 04:21:21;;;;;;;5.87;2.60;;;10.50;99.90;;;;;;953374;147;27493;-82
2023/12/10 04:23:47;;;;;;;8.43;2.93;;;10.50;99.90;;;;;;953519;147;27515;-82
2023/12/10 04:26:14;;;;;;;8.50;2.90;;;10.60;99.90;;;;;;954054;147;27292;-81
2023/12/10 04:28:41;;;;;;;9.73;2.60;;;10.60;99.90;;;;;;952088;146;27317;-82
2023/12/10 04:31:07;;;;;;;8.63;2.57;;;10.70;99.90;;;;;;954223;146;27245;-81
2023/12/10 04:33:34;;;;;;;6.20;2.30;;;10.70;99.90;;;;;;955255;147;27429;-81
2023/12/10 04:36:00;;;;;;;8.40;2.40;;;10.70;99.90;;;;;;953783;146;27336;-81
2023/12/10 04:38:28;;;;;;;11.73;3.37;;;10.80;99.90;;;;;;919872;153;27349;-81
2023/12/10 04:40:54;;;;;;;7.47;2.60;;;10.80;99.90;;;;;;952679;147;27274;-81
2023/12/10 04:43:20;;;;;;;8.17;2.80;;;10.80;99.90;;;;;;953779;147;27313;-81
2023/12/10 04:45:47;;;;;;;5.80;2.20;;;10.90;99.90;;;;;;918377;151;27393;-82
2023/12/10 04:48:13;;;;;;;6.87;2.43;;;10.90;99.90;;;;;;935229;149;28263;-82
2023/12/10 04:50:40;;;;;;;7.80;2.37;;;10.90;99.90;;;;;;957297;147;27308;-82
2023/12/10 04:53:06;;;;;;;9.07;3.17;;;10.90;99.90;;;;;;954132;147;27309;-81
2023/12/10 04:55:33;;;;;;;9.03;3.50;;;11.00;99.90;;;;;;954134;147;27628;-81
2023/12/10 04:58:01;;;;;;;9.23;2.80;;;11.00;99.90;;;;;;954431;147;27337;-81
2023/12/10 05:00:27;;;;;;;9.13;2.50;;;10.90;99.90;;;;;;952204;146;27703;-81
2023/12/10 05:02:54;;;;;;;9.83;2.70;;;10.90;99.90;;;;;;952961;147;27335;-81
2023/12/10 05:05:20;;;;;;;6.73;3.30;;;11.00;99.90;;;;;;953738;147;27298;-84
2023/12/10 05:07:47;;;;;;;8.50;3.47;;;11.00;99.90;;;;;;952490;147;27317;-84
2023/12/10 05:10:14;;;;;;;5.87;2.60;;;11.00;99.90;;;;;;953821;147;27342;-84
2023/12/10 05:12:40;;;;;;;7.90;2.70;;;11.00;99.90;;;;;;953465;147;27496;-84
2023/12/10 05:15:07;;;;;;;12.63;3.07;;;11.00;99.90;;;;;;955623;147;27324;-85
2023/12/10 05:17:33;;;;;;;7.67;2.47;;;11.00;99.90;;;;;;952121;147;27401;-80
2023/12/10 05:20:00;;;;;;;7.03;2.47;;;11.00;99.90;;;;;;953106;147;27396;-79
2023/12/10 05:22:27;;;;;;;12.47;3.67;;;11.00;99.90;;;;;;952091;146;27424;-81
2023/12/10 05:24:53;;;;;;;8.23;2.40;;;11.00;99.90;;;;;;951536;146;27395;-79
2023/12/10 05:27:20;;;;;;;7.07;2.57;;;11.00;99.90;;;;;;950486;147;27320;-80
2023/12/10 05:29:46;;;;;;;8.10;2.60;;;11.10;99.90;;;;;;952858;147;27463;-79
2023/12/10 05:32:13;;;;;;;8.70;2.30;;;11.00;99.90;;;;;;954546;147;27289;-80
2023/12/10 05:34:40;;;;;;;7.13;2.70;;;11.10;99.90;;;;;;954711;147;27399;-79
2023/12/10 05:37:06;;;;;;;8.67;2.93;;;11.10;99.90;;;;;;939770;147;27356;-79
2023/12/10 05:39:33;;;;;;;10.43;2.80;;;11.10;99.90;;;;;;954830;146;27397;-79
2023/12/10 05:41:59;;;;;;;6.30;2.53;;;11.10;99.90;;;;;;955675;146;27299;-80
2023/12/10 05:44:26;;;;;;;10.23;2.80;;;11.10;99.90;;;;;;954794;147;27999;-81
2023/12/10 05:46:53;;;;;;;7.20;2.70;;;11.10;99.90;;;;;;951224;147;27627;-80
2023/12/10 05:49:19;;;;;;;10.90;2.40;;;11.00;99.90;;;;;;950488;147;27411;-79
2023/12/10 05:51:46;;;;;;;10.13;3.17;;;11.00;99.90;;;;;;952899;146;27253;-79
2023/12/10 05:54:12;;;;;;;8.63;2.80;;;11.00;99.90;;;;;;952945;147;27241;-80
2023/12/10 05:56:41;;;;;;;9.20;3.07;;;11.00;99.90;;;;;;953789;147;27357;-79
2023/12/10 05:59:05;;;;;;;7.37;2.60;;;11.00;99.90;;;;;;954374;146;27339;-79
2023/12/10 06:01:32;;;;;;;11.37;3.30;;;10.90;99.90;;;;;;910665;154;27414;-80
2023/12/10 06:03:59;;;;;;;12.40;3.23;;;10.90;99.90;;;;;;952070;147;27397;-81
2023/12/10 06:06:25;;;;;;;6.80;2.63;;;10.80;99.90;;;;;;953336;146;27332;-79
2023/12/10 06:08:52;;;;;;;11.80;3.10;;;10.80;99.90;;;;;;952329;147;27338;-79
2023/12/10 06:11:18;;;;;;;8.07;2.57;;;10.80;99.90;;;;;;953124;147;29300;-79
2023/12/10 06:13:45;;;;;;;8.80;2.80;;;10.80;99.90;;;;;;952817;147;27309;-79
2023/12/10 06:16:12;;;;;;;10.63;3.30;;;10.70;99.90;;;;;;952233;147;27329;-79
2023/12/10 06:18:38;;;;;;;11.90;3.67;;;10.70;99.90;;;;;;951167;147;27424;-79
2023/12/10 06:21:05;;;;;;;13.40;4.03;;;10.70;99.90;;;;;;951460;147;27309;-79
2023/12/10 06:23:31;;;;;;;10.50;3.33;;;10.70;99.90;;;;;;953156;147;27313;-80
2023/12/10 06:25:58;;;;;;;14.97;3.90;;;10.70;99.90;;;;;;946492;147;27364;-79
2023/12/10 06:28:24;;;;;;;12.30;3.53;;;10.70;99.90;;;;;;947593;146;27417;-81
2023/12/10 06:30:51;;;;;;;8.53;2.73;;;10.70;99.90;;;;;;955553;147;27424;-82
2023/12/10 06:33:18;;;;;;;9.80;3.23;;;10.70;99.90;;;;;;957388;147;27292;-82
2023/12/10 06:35:44;;;;;;;10.53;3.53;;;10.70;99.90;;;;;;955356;147;27244;-82
2023/12/10 06:38:11;;;;;;;9.67;3.10;;;10.70;99.90;;;;;;956375;147;27833;-81
2023/12/10 06:40:37;;;;;;;13.07;4.33;;;10.70;99.90;;;;;;958915;147;27436;-81
2023/12/10 06:43:04;;;;;;;11.03;3.00;;;10.70;99.90;;;;;;956992;147;27329;-82
2023/12/10 06:45:31;;;;;;;13.67;3.57;;;10.70;99.90;;;;;;957172;147;27303;-82
2023/12/10 06:47:57;;;;;;;7.70;2.93;;;10.70;99.90;;;;;;957333;147;27330;-82
2023/12/10 06:50:24;;;;;;;13.90;3.93;;;10.70;99.90;;;;;;956490;147;27403;-82
2023/12/10 06:52:50;;;;;;;8.60;2.93;;;10.70;99.90;;;;;;955421;147;27336;-82
2023/12/10 06:55:17;;;;;;;13.23;4.13;;;10.70;99.90;;;;;;957811;147;27451;-82
2023/12/10 06:57:44;;;;;;;12.07;3.83;;;10.80;99.90;;;;;;956654;147;27298;-82
2023/12/10 07:00:10;;;;;;;16.30;4.23;;;10.80;99.90;;;;;;957840;147;27401;-82
2023/12/10 07:02:37;;;;;;;11.20;3.43;;;10.80;99.90;;;;;;919532;153;27462;-82
2023/12/10 07:05:03;;;;;;;9.13;3.60;;;10.90;99.90;;;;;;936516;150;27539;-82
2023/12/10 07:07:30;;;;;;;8.47;3.10;;;10.90;99.90;;;;;;935841;150;27257;-82
2023/12/10 07:09:57;;;;;;;13.47;3.10;;;11.00;99.90;;;;;;935775;150;27860;-81
2023/12/10 07:12:24;;;;;;;9.90;3.20;;;11.00;99.90;;;;;;935737;150;27395;-82
2023/12/10 07:14:50;;;;;;;13.03;3.43;;;11.10;99.90;;;;;;955867;147;27320;-81
2023/12/10 07:17:16;;;;;;;6.73;2.80;;;11.10;99.90;;;;;;957412;147;27359;-82
2023/12/10 07:19:43;;;;;;;13.97;3.43;;;11.20;99.90;;;;;;957206;147;27328;-82
2023/12/10 07:22:09;;;;;;;9.30;3.17;;;11.20;99.90;;;;;;955433;147;27700;-82
2023/12/10 07:24:36;;;;;;;8.00;3.27;;;11.20;99.90;;;;;;958086;146;27445;-82
2023/12/10 07:27:03;;;;;;;11.40;3.10;;;11.30;99.90;;;;;;952962;147;27423;-79
2023/12/10 07:29:29;;;;;;;10.20;3.43;;;11.30;99.90;;;;;;920560;152;27332;-79
2023/12/10 07:31:56;;;;;;;7.37;3.93;;;11.30;99.90;;;;;;920243;152;27411;-79
2023/12/10 07:34:22;;;;;;;8.97;3.37;;;11.30;99.90;;;;;;953201;147;27356;-79
2023/12/10 07:36:49;;;;;;;16.33;4.13;;;11.30;99.90;;;;;;914264;152;27488;-82
2023/12/10 07:39:16;;;;;;;8.73;3.07;;;11.30;99.90;;;;;;919655;152;27497;-85
2023/12/10 07:41:42;;;;;;;11.33;3.62;;;11.30;99.90;;;;;;938126;148;27321;-84
2023/12/10 07:44:09;;;;;;;8.33;2.77;;;11.40;99.90;;;;;;954238;147;27285;-83
2023/12/10 07:46:35;;;;;;;8.00;2.97;;;11.30;99.90;;;;;;958176;147;27304;-83
2023/12/10 07:49:02;;;;;;;10.97;3.43;;;11.30;99.90;;;;;;959266;147;27322;-83
2023/12/10 07:51:29;;;;;;;15.50;3.72;;;11.30;99.90;;;;;;957021;147;27457;-83
2023/12/10 07:53:55;;;;;;;8.10;2.80;;;11.30;99.90;;;;;;955350;147;27278;-83
2023/12/10 07:56:22;;;;;;;13.67;3.57;;;11.40;99.90;;;;;;956988;147;27424;-83
2023/12/10 07:58:48;;;;;;;9.80;3.20;;;11.40;99.90;;;;;;956534;147;27407;-82
2023/12/10 08:01:15;;;;;;;10.73;3.13;;;11.40;99.90;;;;;;956183;147;27429;-83
2023/12/10 08:03:42;;;;;;;13.47;4.63;;;11.40;99.90;;;;;;957091;147;27325;-82
2023/12/10 08:06:08;;;;;;;8.70;3.37;;;11.40;99.90;;;;;;957973;147;27384;-83
2023/12/10 08:08:35;;;;;;;8.13;2.80;;;11.50;99.90;;;;;;956953;147;27361;-82
2023/12/10 08:11:03;;;;;;;8.67;2.93;;;11.40;99.90;;;;;;957568;147;27460;-82
2023/12/10 08:13:28;;;;;;;11.97;3.27;;;11.40;99.90;;;;;;956723;147;27428;-83
2023/12/10 08:15:54;;;;;;;9.08;2.87;;;11.40;99.90;;;;;;956370;147;27276;-83
2023/12/10 08:18:21;;;;;;;11.10;3.53;;;11.50;99.90;;;;;;920468;153;27392;-82
2023/12/10 08:20:48;;;;;;;8.53;2.77;;;11.50;99.90;;;;;;937400;150;27381;-82
2023/12/10 08:23:14;;;;;;;10.70;2.83;;;11.50;99.90;;;;;;935641;150;27357;-83
2023/12/10 08:25:41;;;;;;;13.32;3.62;;;11.50;99.90;;;;;;937934;149;27350;-83
2023/12/10 08:28:07;;;;;;;10.08;3.40;;;11.60;99.90;;;;;;936397;150;27266;-83
2023/12/10 08:30:34;;;;;;;9.28;3.35;;;11.60;99.90;;;;;;960506;146;27412;-82
2023/12/10 08:33:01;;;;;;;8.05;2.58;;;11.60;99.90;;;;;;963890;146;27313;-81
2023/12/10 08:35:27;;;;;;;18.17;4.95;;;11.70;99.90;;;;;;962630;146;27443;-82
2023/12/10 08:37:54;;;;;;;8.35;2.90;;;11.80;99.90;;;;;;906440;152;27466;-79
2023/12/10 08:40:20;;;;;;;12.00;3.13;;;11.80;99.90;;;;;;918426;153;27391;-80
2023/12/10 08:42:47;;;;;;;10.63;2.72;;;11.80;99.90;;;;;;920949;153;27415;-80
2023/12/10 08:45:14;;;;;;;12.25;3.08;;;11.90;99.90;;;;;;920275;153;27384;-79
2023/12/10 08:47:40;;;;;;;6.00;2.90;;;11.90;99.90;;;;;;919462;151;27340;-81
2023/12/10 08:50:07;;;;;;;8.85;3.00;;;12.00;99.90;;;;;;930355;149;28111;-81
2023/12/10 08:52:33;;;;;;;8.87;2.60;;;12.00;99.90;;;;;;924270;152;27307;-81
2023/12/10 08:55:01;;;;;;;6.10;2.60;;;12.10;99.90;;;;;;921288;152;27493;-81
2023/12/10 08:57:26;;;;;;;14.07;3.22;;;12.10;99.90;;;;;;924754;151;27368;-82
2023/12/10 08:59:59;;;;;;;6.85;2.40;;;12.20;99.90;;;;;;954226;146;27299;-82
2023/12/10 09:02:20;;;;;;;8.55;2.52;;;12.20;99.90;;;;;;954799;147;27407;-81
2023/12/10 09:04:46;;;;;;;9.20;2.47;;;12.30;99.90;;;;;;954641;147;27710;-81
2023/12/10 09:07:13;;;;;;;12.28;2.80;;;12.30;99.90;;;;;;955010;147;27438;-81
2023/12/10 09:09:39;;;;;;;7.87;2.40;;;12.40;99.90;;;;;;952466;147;27426;-81
2023/12/10 09:12:06;;;;;;;9.43;2.83;;;12.40;99.90;;;;;;953881;147;27257;-81
2023/12/10 09:14:33;;;;;;;8.93;2.83;;;12.50;99.90;;;;;;954398;147;27375;-81
2023/12/10 09:17:00;;;;;;;12.47;3.33;;;12.50;99.90;;;;;;955306;147;27335;-81
2023/12/10 09:19:27;;;;;;;6.55;2.87;;;12.50;99.90;;;;;;952938;147;27321;-81
2023/12/10 09:21:52;;;;;;;9.13;3.00;;;12.60;99.90;;;;;;957083;147;27778;-82
2023/12/10 09:24:19;;;;;;;10.68;2.90;;;12.60;99.90;;;;;;960342;146;27357;-81
2023/12/10 09:26:46;;;;;;;6.62;2.83;;;12.60;99.90;;;;;;953097;147;27423;-81
2023/12/10 09:29:12;;;;;;;8.05;2.83;;;12.60;99.90;;;;;;953949;147;27430;-81
2023/12/10 09:31:39;;;;;;;9.10;2.98;;;12.70;99.90;;;;;;955649;147;27775;-82
2023/12/10 09:34:05;;;;;;;10.03;2.42;;;12.80;99.90;;;;;;953983;147;27386;-81
2023/12/10 09:36:32;;;;;;;8.85;2.37;;;12.80;99.90;;;;;;955871;147;27350;-81
2023/12/10 09:38:59;;;;;;;8.65;3.30;;;12.80;99.90;;;;;;954025;146;27360;-80
2023/12/10 09:41:25;;;;;;;10.93;3.22;;;12.90;99.90;;;;;;956231;147;27383;-81
2023/12/10 09:43:52;;;;;;;5.50;2.35;;;13.00;99.90;;;;;;955253;147;27383;-81
2023/12/10 09:46:18;;;;;;;8.63;3.10;;;13.00;99.90;;;;;;956281;147;27259;-81
2023/12/10 09:48:45;;;;;;;8.25;3.40;;;13.10;99.90;;;;;;954284;147;27823;-83
2023/12/10 09:51:12;;;;;;;10.35;3.17;;;13.20;99.90;;;;;;952668;147;27342;-83
2023/12/10 09:53:38;;;;;;;7.60;2.87;;;13.30;99.90;;;;;;955156;147;27347;-84
2023/12/10 09:56:05;;;;;;;5.83;2.42;;;13.40;99.90;;;;;;954521;147;27268;-84
2023/12/10 09:58:31;;;;;;;9.88;3.45;;;13.40;99.90;;;;;;935756;150;27323;-81
2023/12/10 10:01:00;;;;;;;5.55;2.58;;;13.50;99.90;;;;;;955463;147;27333;-81
2023/12/10 10:03:25;;;;;;;10.60;2.87;;;13.60;99.90;;;;;;953968;146;27342;-81
2023/12/10 10:05:51;;;;;;;9.15;2.58;;;13.70;99.90;;;;;;954186;147;27269;-81
2023/12/10 10:08:18;;;;;;;8.25;3.02;;;13.80;99.90;;;;;;906882;153;27426;-81
2023/12/10 10:10:44;;;;;;;8.33;3.15;;;13.90;99.90;;;;;;919999;152;27416;-81
2023/12/10 10:13:11;;;;;;;9.98;2.92;;;14.00;99.90;;;;;;919976;152;27390;-82
2023/12/10 10:15:37;;;;;;;8.28;2.47;;;14.10;99.90;;;;;;921536;152;27347;-81
2023/12/10 10:18:04;;;;;;;8.55;2.80;;;14.20;99.90;;;;;;922671;152;27318;-82
2023/12/10 10:20:31;;;;;;;6.53;2.72;;;14.30;99.90;;;;;;921913;152;27294;-82
2023/12/10 10:22:57;;;;;;;7.95;2.52;;;14.30;99.70;;;;;;920119;152;28058;-82
2023/12/10 10:25:24;;;;;;;8.63;2.62;;;14.40;99.70;;;;;;924218;152;27491;-81
2023/12/10 10:27:50;;;;;;;7.20;2.80;;;14.50;99.20;;;;;;914736;153;27322;-82
2023/12/10 10:30:17;;;;;;;12.45;2.70;;;14.60;99.00;;;;;;954562;147;27324;-82
2023/12/10 10:32:44;;;;;;;7.10;2.85;;;14.60;97.40;;;;;;955651;147;27303;-82
2023/12/10 10:35:11;;;;;;;10.38;2.80;;;14.70;97.80;;;;;;955841;147;27331;-82
2023/12/10 10:37:37;;;;;;;9.85;3.52;;;14.70;97.50;;;;;;954885;147;27428;-82
2023/12/10 10:40:03;;;;;;;8.08;2.87;;;14.70;96.40;;;;;;957672;146;27366;-82
2023/12/10 10:42:30;;;;;;;6.70;2.20;;;14.80;96.20;;;;;;956578;147;27287;-82
2023/12/10 10:44:56;;;;;;;11.00;2.83;;;14.80;95.80;;;;;;957540;147;27271;-82
2023/12/10 10:47:23;;;;;;;8.83;3.42;;;14.70;94.80;;;;;;916686;154;27381;-82
2023/12/10 10:49:52;;;;;;;12.70;4.08;;;14.70;94.70;;;;;;957665;147;28257;-82
2023/12/10 10:52:22;;;;;;;12.40;2.75;;;14.60;94.60;;;;;;955128;147;27263;-81
2023/12/10 10:54:48;;;;;;;8.03;2.67;;;14.50;94.40;;;;;;954176;147;27300;-82
2023/12/10 10:57:36;;;;;;;5.50;2.45;;;14.50;94.30;;;;;;953919;147;27372;-80
2023/12/10 11:00:18;;;;;;;7.35;2.22;;;14.40;94.40;;;;;;955465;147;27368;-80
2023/12/10 11:02:47;;;;;;;9.38;3.05;;;14.30;94.30;;;;;;956666;147;27358;-80
2023/12/10 11:05:13;;;;;;;6.78;2.70;;;14.20;94.30;;;;;;957454;147;27350;-81
2023/12/10 11:07:43;;;;;;;7.87;2.95;;;14.10;94.00;;;;;;957852;147;27351;-82
2023/12/10 11:10:09;;;;;;;7.80;2.90;;;14.00;94.40;;;;;;954372;147;27250;-82
2023/12/10 11:12:45;;;;;;;6.37;2.60;;;14.00;94.80;;;;;;955902;147;27323;-82
2023/12/10 11:15:14;;;;;;;7.22;3.10;;;13.90;94.80;;;;;;955646;147;27343;-82
2023/12/10 11:17:58;;;;;;;7.25;2.42;;;13.80;95.10;;;;;;956779;147;27304;-82
2023/12/10 11:20:33;;;;;;;7.97;2.83;;;13.80;95.60;;;;;;954805;147;27301;-82
2023/12/10 11:23:03;;;;;;;8.33;3.08;;;13.80;96.00;;;;;;953939;147;27331;-82
2023/12/10 11:25:29;;;;;;;7.22;2.58;;;13.70;96.50;;;;;;951601;147;27320;-82
2023/12/10 11:27:57;;;;;;;7.80;2.90;;;13.80;96.90;;;;;;954823;147;27471;-82
2023/12/10 11:30:23;;;;;;;8.20;2.72;;;13.80;96.50;;;;;;953497;147;27312;-82
2023/12/10 11:32:49;;;;;;;6.15;2.42;;;13.90;97.30;;;;;;952770;147;27305;-82
2023/12/10 11:35:16;;;;;;;7.37;2.80;;;14.00;97.00;;;;;;952852;146;27321;-82
2023/12/10 11:37:43;;;;;;;6.97;2.40;;;14.10;96.70;;;;;;953586;146;27279;-83
2023/12/10 11:40:09;;;;;;;7.67;2.40;;;14.10;96.50;;;;;;911157;153;27288;-82
2023/12/10 11:42:36;;;;;;;10.85;2.35;;;14.20;96.20;;;;;;953345;147;27331;-82
2023/12/10 11:45:02;;;;;;;6.75;2.77;;;14.20;95.90;;;;;;951049;147;28038;-83
2023/12/10 11:47:29;;;;;;;7.58;2.75;;;14.30;95.10;;;;;;913041;154;27427;-83
2023/12/10 11:49:55;;;;;;;7.85;2.70;;;14.30;95.10;;;;;;953071;147;27370;-83
2023/12/10 11:52:22;;;;;;;6.78;2.55;;;14.30;95.10;;;;;;951666;147;27287;-83
2023/12/10 11:54:49;;;;;;;10.90;3.12;;;14.30;95.00;;;;;;955076;147;27352;-82
2023/12/10 11:57:15;;;;;;;5.15;2.70;;;14.30;94.60;;;;;;955641;147;27288;-82
2023/12/10 11:59:42;;;;;;;13.22;2.87;;;14.30;94.40;;;;;;953733;147;27766;-83
2023/12/10 12:02:08;;;;;;;6.95;2.90;;;14.30;94.10;;;;;;952877;147;27299;-82
2023/12/10 12:04:35;;;;;;;5.53;2.65;;;14.30;94.10;;;;;;954714;147;27391;-83
2023/12/10 12:07:02;;;;;;;8.33;2.90;;;14.30;94.10;;;;;;953124;147;27232;-83
2023/12/10 12:09:29;;;;;;;4.53;2.80;;;14.30;93.50;;;;;;953689;147;27247;-82
2023/12/10 12:11:55;;;;;;;9.25;2.60;;;14.30;93.50;;;;;;953657;147;27300;-82
2023/12/10 12:14:21;;;;;;;8.68;2.77;;;14.20;92.90;;;;;;953319;146;27437;-81
2023/12/10 12:16:48;;;;;;;11.30;3.02;;;14.20;93.00;;;;;;954160;147;27329;-82
2023/12/10 12:19:29;;;;;;;8.38;2.77;;;14.20;93.10;;;;;;954505;147;27303;-83
2023/12/10 12:21:57;;;;;;;8.28;2.60;;;14.10;93.00;;;;;;953202;147;27339;-83
2023/12/10 12:24:23;;;;;;;6.75;2.58;;;14.10;92.80;;;;;;911246;154;27443;-82
2023/12/10 12:26:50;;;;;;;8.03;2.55;;;14.10;93.00;;;;;;921984;152;27452;-83
2023/12/10 12:29:16;;;;;;;11.65;3.52;;;14.00;92.30;;;;;;921181;152;27417;-84
2023/12/10 12:31:42;;;;;;;7.47;2.95;;;14.00;92.80;;;;;;954992;147;27371;-84
2023/12/10 12:34:09;;;;;;;10.68;2.45;;;14.00;93.00;;;;;;955692;147;27406;-84
2023/12/10 12:36:36;;;;;;;6.62;2.42;;;13.90;93.00;;;;;;955687;147;27494;-83
2023/12/10 12:39:03;;;;;;;11.83;2.90;;;13.90;93.00;;;;;;955410;147;27721;-85
2023/12/10 12:41:29;;;;;;;8.03;2.50;;;13.80;93.20;;;;;;955300;146;27293;-84